Time;durP1;ratioP1;P1;durP2;ratioP2;P2;SDS_P1;SDS_P2;PMS_P1;PMS_P2;Temp;Humidity;BMP_temperature;BMP_pressure;BME280_temperature;BME280_humidity;BME280_pressure;Samples;Min_cycle;Max_cycle;Signal;HPM_P1;HPM_P2
2022/05/06 00:00:11;;;;;;;6.93;5.55;;;;;;;8.48;77.01;101736.50;4956523;28;20027;-73
2022/05/06 00:02:37;;;;;;;5.85;5.20;;;;;;;8.47;77.36;101737.44;4962256;28;20263;-74
2022/05/06 00:05:02;;;;;;;7.20;5.97;;;;;;;8.47;77.61;101739.22;4980434;28;20104;-74
2022/05/06 00:07:28;;;;;;;5.53;5.03;;;;;;;8.37;77.55;101729.22;4962075;28;20049;-74
2022/05/06 00:09:53;;;;;;;5.95;5.45;;;;;;;8.37;77.51;101736.31;5002513;28;20263;-72
2022/05/06 00:12:19;;;;;;;8.75;5.40;;;;;;;8.34;77.97;101734.69;4961528;28;20037;-73
2022/05/06 00:14:45;;;;;;;5.90;4.97;;;;;;;8.39;77.36;101735.25;4998263;28;20192;-74
2022/05/06 00:17:10;;;;;;;5.78;5.30;;;;;;;8.38;77.50;101738.00;4957433;28;20034;-74
2022/05/06 00:19:36;;;;;;;6.80;5.60;;;;;;;8.29;77.70;101736.81;4967579;28;20341;-72
2022/05/06 00:22:01;;;;;;;5.03;4.63;;;;;;;8.31;77.77;101748.09;4987975;28;20866;-73
2022/05/06 00:24:28;;;;;;;5.78;5.28;;;;;;;8.22;77.74;101753.94;4943000;28;20424;-73
2022/05/06 00:26:54;;;;;;;5.75;5.25;;;;;;;8.18;78.30;101752.44;4939535;28;20006;-73
2022/05/06 00:29:19;;;;;;;5.60;5.10;;;;;;;8.12;78.57;101744.91;4956921;28;20022;-73
2022/05/06 00:31:45;;;;;;;5.47;5.15;;;;;;;8.08;78.52;101750.38;4976818;28;20038;-72
2022/05/06 00:34:10;;;;;;;11.20;5.60;;;;;;;8.04;78.58;101758.59;4955910;28;20021;-75
2022/05/06 00:36:36;;;;;;;6.05;5.65;;;;;;;7.98;78.56;101754.53;4943296;28;20687;-74
2022/05/06 00:39:01;;;;;;;6.53;5.43;;;;;;;7.95;78.87;101759.16;4957931;28;20936;-75
2022/05/06 00:41:27;;;;;;;5.47;5.07;;;;;;;7.91;78.99;101754.06;4972591;28;20028;-74
2022/05/06 00:43:52;;;;;;;5.53;5.07;;;;;;;7.91;78.63;101754.06;5018663;28;20089;-73
2022/05/06 00:46:17;;;;;;;5.85;5.25;;;;;;;7.90;78.95;101752.38;4992440;28;20939;-72
2022/05/06 00:48:45;;;;;;;6.15;5.65;;;;;;;7.88;79.10;101756.91;4977519;28;20030;-73
2022/05/06 00:51:11;;;;;;;5.28;4.97;;;;;;;7.86;79.04;101753.50;4983919;28;20025;-74
2022/05/06 00:53:37;;;;;;;5.97;5.47;;;;;;;7.84;78.99;101757.16;4979524;28;20022;-72
2022/05/06 00:56:03;;;;;;;7.32;5.45;;;;;;;8.00;78.64;101751.81;4985685;28;20905;-73
2022/05/06 00:58:30;;;;;;;5.90;5.40;;;;;;;8.21;77.63;101757.53;4954152;28;20017;-74
2022/05/06 01:00:55;;;;;;;5.50;5.00;;;;;;;8.28;76.40;101755.34;4963657;28;20014;-74
2022/05/06 01:03:21;;;;;;;6.47;5.15;;;;;;;8.17;76.74;101763.94;4975123;28;20025;-73
2022/05/06 01:05:47;;;;;;;7.05;5.25;;;;;;;7.99;77.76;101764.13;4978020;28;20013;-73
2022/05/06 01:08:13;;;;;;;5.97;4.97;;;;;;;8.09;77.20;101767.03;4991941;28;20129;-73
2022/05/06 01:10:38;;;;;;;5.93;5.35;;;;;;;8.02;77.46;101771.88;5011188;28;20034;-74
2022/05/06 01:13:04;;;;;;;6.32;5.13;;;;;;;8.06;77.16;101767.22;4961011;28;20013;-72
2022/05/06 01:15:29;;;;;;;5.45;5.05;;;;;;;8.08;76.90;101768.00;4969194;28;20074;-74
2022/05/06 01:17:56;;;;;;;6.45;4.93;;;;;;;8.06;77.47;101767.22;4990855;28;20936;-73
2022/05/06 01:20:22;;;;;;;4.97;4.57;;;;;;;8.09;77.06;101769.66;4970710;28;20026;-73
2022/05/06 01:22:49;;;;;;;5.40;4.97;;;;;;;8.10;77.24;101766.09;4980557;28;20844;-72
2022/05/06 01:25:15;;;;;;;5.65;4.93;;;;;;;8.19;77.08;101767.31;4947447;28;20014;-75
2022/05/06 01:27:45;;;;;;;5.07;4.78;;;;;;;8.15;77.30;101760.53;4979459;28;20121;-75
2022/05/06 01:30:20;;;;;;;5.30;4.90;;;;;;;8.09;77.17;101767.03;4941935;28;20114;-75
2022/05/06 01:32:45;;;;;;;5.07;4.68;;;;;;;8.01;77.34;101769.28;5001735;28;21041;-72
2022/05/06 01:35:11;;;;;;;5.95;5.00;;;;;;;7.95;77.80;101773.16;5000965;28;20013;-73
2022/05/06 01:37:36;;;;;;;4.80;4.45;;;;;;;7.87;78.25;101773.63;4959776;28;20961;-73
2022/05/06 01:40:02;;;;;;;6.22;4.95;;;;;;;7.90;78.06;101770.81;4960887;28;20168;-73
2022/05/06 01:42:28;;;;;;;5.40;4.90;;;;;;;7.74;78.76;101772.69;4978874;28;20026;-72
2022/05/06 01:44:53;;;;;;;6.25;5.13;;;;;;;7.72;78.75;101778.03;4963273;28;20021;-72
2022/05/06 01:47:21;;;;;;;6.20;5.50;;;;;;;7.67;78.86;101776.63;4982204;28;20010;-75
2022/05/06 01:49:47;;;;;;;5.68;5.18;;;;;;;7.59;79.14;101771.84;4985904;28;20052;-72
2022/05/06 01:52:15;;;;;;;5.85;5.22;;;;;;;7.64;78.94;101776.81;4983050;28;20860;-74
2022/05/06 01:54:40;;;;;;;5.63;5.07;;;;;;;7.61;79.01;101782.28;4996668;28;20014;-73
2022/05/06 01:57:06;;;;;;;5.80;5.30;;;;;;;7.54;79.03;101780.03;4984029;28;20037;-74
2022/05/06 01:59:31;;;;;;;5.18;4.78;;;;;;;7.76;78.57;101776.09;4988814;28;20017;-72
2022/05/06 02:01:57;;;;;;;5.10;4.70;;;;;;;7.88;77.53;101782.38;5001113;28;20009;-73
2022/05/06 02:07:06;;;;;;;5.38;4.90;;;;;;;7.67;77.17;101776.63;4991585;28;20504;-73
2022/05/06 02:09:31;;;;;;;5.40;5.00;;;;;;;7.76;77.26;101781.34;5019605;28;20518;-73
2022/05/06 02:11:57;;;;;;;5.38;4.88;;;;;;;7.56;77.98;101770.22;4987248;28;20018;-73
2022/05/06 02:14:22;;;;;;;4.95;4.65;;;;;;;7.43;78.55;101777.19;4989194;28;20031;-73
2022/05/06 02:16:48;;;;;;;6.75;5.05;;;;;;;7.34;78.99;101780.34;4991767;28;20010;-73
2022/05/06 02:19:14;;;;;;;6.82;4.82;;;;;;;7.30;79.17;101778.81;4991828;28;20917;-73
2022/05/06 02:21:39;;;;;;;5.13;4.82;;;;;;;7.18;79.37;101786.50;4986281;28;19994;-75
2022/05/06 02:24:05;;;;;;;5.43;4.95;;;;;;;7.29;79.33;101782.38;5008161;28;20009;-73
2022/05/06 02:26:31;;;;;;;5.43;4.90;;;;;;;7.35;79.26;101782.88;4992771;28;20014;-74
2022/05/06 02:28:56;;;;;;;5.13;4.65;;;;;;;7.34;78.64;101778.53;5008964;28;20769;-72
2022/05/06 02:34:06;;;;;;;;;;;;;;;7.39;77.82;101778.28;5003628;28;20050;-72
2022/05/06 02:36:31;;;;;;;5.13;4.77;;;;;;;7.17;78.48;101783.97;5013198;28;21139;-73
2022/05/06 02:38:56;;;;;;;5.30;4.82;;;;;;;7.03;79.30;101772.44;4978963;28;20970;-73
2022/05/06 02:41:22;;;;;;;5.63;5.03;;;;;;;7.01;79.54;101776.94;5002258;28;21010;-73
2022/05/06 02:43:47;;;;;;;5.72;5.07;;;;;;;6.95;79.79;101784.34;4991882;28;20210;-73
2022/05/06 02:46:12;;;;;;;7.80;5.43;;;;;;;6.93;79.80;101787.06;4991063;28;20276;-72
2022/05/06 02:48:38;;;;;;;5.50;5.00;;;;;;;6.91;79.71;101788.94;4978394;28;20960;-72
2022/05/06 02:51:04;;;;;;;5.05;4.65;;;;;;;6.84;79.89;101777.91;4952135;28;20579;-73
2022/05/06 02:53:29;;;;;;;5.82;5.32;;;;;;;6.82;79.85;101781.56;4925157;28;20905;-74
2022/05/06 02:55:54;;;;;;;6.22;5.32;;;;;;;6.77;80.40;101775.69;4948176;28;20010;-72
2022/05/06 02:58:20;;;;;;;5.80;5.30;;;;;;;6.85;80.06;101774.34;4971071;28;20021;-73
2022/05/06 03:00:45;;;;;;;6.13;5.10;;;;;;;6.78;79.63;101778.28;4983066;28;20308;-71
2022/05/06 03:03:11;;;;;;;5.28;4.90;;;;;;;6.80;79.78;101770.28;4962450;28;20923;-73
2022/05/06 03:05:37;;;;;;;5.45;5.05;;;;;;;6.74;79.98;101760.97;4959515;28;20643;-73
2022/05/06 03:08:02;;;;;;;5.38;4.78;;;;;;;6.66;79.71;101769.25;4966148;28;20171;-76
2022/05/06 03:10:27;;;;;;;5.25;4.85;;;;;;;6.65;80.19;101764.94;4978384;28;20100;-72
2022/05/06 03:12:58;;;;;;;5.45;4.80;;;;;;;6.73;80.11;101772.41;4980270;28;20010;-72
2022/05/06 03:15:24;;;;;;;5.68;5.13;;;;;;;6.93;78.82;101762.53;4970166;28;20037;-72
2022/05/06 03:17:50;;;;;;;5.80;5.40;;;;;;;6.96;78.16;101765.00;4948266;28;20062;-73
2022/05/06 03:20:15;;;;;;;5.63;5.10;;;;;;;6.76;78.81;101766.13;4955816;28;20540;-74
2022/05/06 03:22:42;;;;;;;5.50;5.00;;;;;;;6.67;79.17;101770.09;4924178;28;20830;-73
2022/05/06 03:25:08;;;;;;;5.38;4.97;;;;;;;6.63;79.70;101765.97;4940427;28;20079;-73
2022/05/06 03:30:19;;;;;;;5.20;4.70;;;;;;;6.53;79.60;101755.97;4974069;28;20133;-73
2022/05/06 03:32:44;;;;;;;7.03;5.38;;;;;;;6.53;79.83;101769.09;4928292;28;20552;-75
2022/05/06 03:35:10;;;;;;;5.65;5.15;;;;;;;6.76;79.35;101768.75;4945722;28;20979;-73
2022/05/06 03:37:38;;;;;;;5.80;5.38;;;;;;;6.64;79.48;101765.88;4951559;28;20041;-75
2022/05/06 03:40:05;;;;;;;6.90;5.38;;;;;;;6.75;78.86;101767.88;4991647;28;20223;-76
2022/05/06 03:42:30;;;;;;;5.55;5.13;;;;;;;6.63;78.74;101765.97;4968327;28;20105;-73
2022/05/06 03:44:55;;;;;;;5.65;5.15;;;;;;;6.53;79.33;101774.38;4989503;28;20017;-73
2022/05/06 03:47:21;;;;;;;5.63;5.13;;;;;;;6.47;79.41;101771.22;5014726;28;20020;-73
2022/05/06 03:51:20;;;;;;;5.50;5.10;;;;;;;6.43;79.78;101773.19;5016040;28;20643;-73
2022/05/06 03:52:32;;;;;;;6.50;5.00;;;;;;;6.41;80.20;101776.81;4980951;28;20315;-74
2022/05/06 03:54:57;;;;;;;5.28;4.88;;;;;;;6.31;79.75;101765.97;4973323;28;20715;-73
2022/05/06 03:57:22;;;;;;;5.57;5.18;;;;;;;6.29;80.06;101781.81;4997107;28;20018;-74
2022/05/06 03:59:48;;;;;;;5.18;4.78;;;;;;;6.28;80.49;101771.41;4974629;28;20025;-72
2022/05/06 04:02:13;;;;;;;6.57;5.53;;;;;;;6.27;80.43;101774.94;4974031;28;20099;-72
2022/05/06 04:04:38;;;;;;;5.57;5.07;;;;;;;6.25;80.58;101779.44;4969661;28;20293;-73
2022/05/06 04:07:07;;;;;;;7.90;5.40;;;;;;;6.19;80.49;101778.84;4977360;28;20920;-74
2022/05/06 04:09:32;;;;;;;5.38;5.03;;;;;;;6.16;80.41;101786.91;4980526;28;20811;-73
2022/05/06 04:11:59;;;;;;;5.13;4.72;;;;;;;6.14;80.34;101783.47;4977988;28;20033;-75
2022/05/06 04:14:25;;;;;;;6.68;6.00;;;;;;;6.14;81.20;101787.91;4973783;27;20056;-75
2022/05/06 04:16:50;;;;;;;6.35;5.20;;;;;;;6.18;80.90;101792.06;4982559;27;20020;-72
2022/05/06 04:19:16;;;;;;;5.72;5.32;;;;;;;6.13;80.76;101786.19;5001602;27;20016;-72
2022/05/06 04:24:25;;;;;;;;;;;;;;;6.17;80.93;101788.56;4997420;28;20035;-73
2022/05/06 04:26:50;;;;;;;5.73;5.23;;;;;;;6.17;80.99;101788.56;5015865;28;20853;-75
2022/05/06 04:29:16;;;;;;;5.95;5.28;;;;;;;6.16;81.09;101792.16;4980514;28;20993;-76
2022/05/06 04:31:41;;;;;;;5.55;5.05;;;;;;;6.26;81.03;101796.91;4971750;28;20140;-76
2022/05/06 04:34:07;;;;;;;8.23;5.10;;;;;;;6.25;80.81;101800.47;4944688;28;20625;-74
2022/05/06 04:36:32;;;;;;;6.40;5.90;;;;;;;6.30;81.15;101798.44;4989623;28;20086;-72
2022/05/06 04:38:58;;;;;;;5.68;5.25;;;;;;;6.34;80.84;101811.31;4983018;28;20779;-74
2022/05/06 04:41:24;;;;;;;7.10;5.50;;;;;;;6.34;80.81;101802.59;4960237;28;20032;-74
2022/05/06 04:43:50;;;;;;;5.90;5.35;;;;;;;6.36;80.73;101804.22;4945074;28;20004;-74
2022/05/06 04:46:15;;;;;;;7.38;6.22;;;;;;;6.40;81.01;101806.66;4953839;28;20010;-74
2022/05/06 04:48:40;;;;;;;6.20;5.70;;;;;;;6.40;81.38;101807.50;4942772;28;20358;-73
2022/05/06 04:51:06;;;;;;;5.75;5.20;;;;;;;6.44;81.01;101813.47;4968706;28;20222;-73
2022/05/06 04:53:31;;;;;;;6.57;5.60;;;;;;;6.47;80.63;101810.66;4952765;28;20061;-74
2022/05/06 04:55:57;;;;;;;6.65;5.97;;;;;;;6.59;81.03;101811.78;4936118;28;20006;-74
2022/05/06 04:58:23;;;;;;;6.45;5.85;;;;;;;6.62;80.92;101822.13;4978977;28;20098;-72
2022/05/06 05:00:48;;;;;;;6.07;5.63;;;;;;;6.68;80.58;101835.81;4978878;28;20864;-72
2022/05/06 05:03:14;;;;;;;6.22;5.72;;;;;;;6.74;80.93;101834.63;4952556;28;20021;-75
2022/05/06 05:05:39;;;;;;;6.18;5.72;;;;;;;6.91;80.25;101832.81;4945319;28;20847;-74
2022/05/06 05:08:08;;;;;;;6.60;6.10;;;;;;;6.93;80.27;101830.94;4963457;28;20010;-75
2022/05/06 05:10:33;;;;;;;6.30;5.80;;;;;;;6.99;80.56;101838.50;4986562;28;21031;-75
2022/05/06 05:12:59;;;;;;;6.97;5.80;;;;;;;6.99;80.41;101833.22;4984003;28;20047;-76
2022/05/06 05:15:24;;;;;;;6.13;5.70;;;;;;;7.18;80.24;101843.56;4949052;28;20831;-75
2022/05/06 05:17:50;;;;;;;6.07;5.65;;;;;;;7.19;80.09;101846.13;4965596;28;20048;-73
2022/05/06 05:20:15;;;;;;;6.47;5.95;;;;;;;7.31;80.21;101838.44;4970937;28;20030;-72
2022/05/06 05:22:41;;;;;;;6.00;5.40;;;;;;;7.36;80.00;101839.88;4985425;28;20783;-74
2022/05/06 05:25:07;;;;;;;5.88;5.35;;;;;;;7.47;79.79;101849.78;4969142;28;20029;-76
2022/05/06 05:27:33;;;;;;;5.75;5.28;;;;;;;7.62;80.02;101847.19;4965051;28;20021;-74
2022/05/06 05:29:59;;;;;;;6.20;5.60;;;;;;;7.83;79.24;101858.25;4967023;28;20053;-74
2022/05/06 05:32:24;;;;;;;7.68;5.85;;;;;;;7.86;79.32;101847.53;4964420;28;20170;-73
2022/05/06 05:34:50;;;;;;;6.32;5.50;;;;;;;7.90;79.26;101857.78;4975349;28;20095;-75
2022/05/06 05:37:16;;;;;;;6.30;5.60;;;;;;;8.00;78.91;101851.97;4972544;28;20288;-74
2022/05/06 05:39:41;;;;;;;6.85;5.40;;;;;;;8.04;79.25;101856.97;4972627;28;20026;-73
2022/05/06 05:42:07;;;;;;;6.35;5.78;;;;;;;8.15;79.94;101856.31;4991372;28;20017;-72
2022/05/06 05:50:02;;;;;;;8.85;6.40;;;;;;;8.76;77.94;101862.22;4973569;28;20510;-73
2022/05/06 05:52:28;;;;;;;8.27;5.75;;;;;;;8.97;77.53;101855.66;5026610;28;20773;-74
2022/05/06 05:54:54;;;;;;;7.47;6.00;;;;;;;9.17;76.41;101860.50;5002902;28;20496;-75
2022/05/06 05:57:19;;;;;;;6.88;6.18;;;;;;;9.27;77.15;101863.41;5003886;28;20006;-75
2022/05/06 05:59:44;;;;;;;6.68;6.13;;;;;;;9.27;76.46;101852.84;4989799;28;20053;-73
2022/05/06 06:02:11;;;;;;;8.32;5.95;;;;;;;9.35;76.96;101853.19;4989592;28;20202;-74
2022/05/06 06:04:38;;;;;;;6.63;5.97;;;;;;;9.42;76.76;101859.75;4966295;28;20120;-74
2022/05/06 06:07:03;;;;;;;7.63;6.53;;;;;;;9.55;76.69;101862.41;4976794;28;20006;-74
2022/05/06 06:09:29;;;;;;;8.95;6.68;;;;;;;9.72;76.43;101865.72;4979169;28;20556;-73
2022/05/06 06:11:54;;;;;;;9.55;7.20;;;;;;;9.78;75.20;101860.00;4996550;28;20045;-74
2022/05/06 06:14:20;;;;;;;7.72;7.13;;;;;;;9.91;75.69;101860.88;4963250;28;20018;-74
2022/05/06 06:16:47;;;;;;;12.00;8.05;;;;;;;9.99;74.35;101856.88;4965255;28;20013;-75
2022/05/06 06:19:13;;;;;;;13.07;7.85;;;;;;;10.12;74.43;101865.63;4996997;28;20125;-72
2022/05/06 06:21:38;;;;;;;9.95;8.05;;;;;;;10.23;74.01;101859.63;4996554;28;20412;-73
2022/05/06 06:24:04;;;;;;;12.07;8.60;;;;;;;10.44;73.68;101857.28;4978656;28;20509;-74
2022/05/06 06:26:29;;;;;;;11.13;8.88;;;;;;;10.56;72.31;101867.00;4978048;28;19997;-73
2022/05/06 06:28:55;;;;;;;9.90;8.90;;;;;;;10.62;72.88;101861.28;4973724;28;20071;-73
2022/05/06 06:31:20;;;;;;;11.73;10.48;;;;;;;10.72;72.65;101865.91;4994148;28;20037;-72
2022/05/06 06:33:46;;;;;;;14.05;10.30;;;;;;;10.84;72.43;101870.31;4974274;28;20450;-74
2022/05/06 06:36:11;;;;;;;13.27;11.15;;;;;;;10.81;72.93;101860.78;4973865;28;20032;-74
2022/05/06 06:38:37;;;;;;;16.90;11.10;;;;;;;10.90;73.28;101861.94;4941645;28;20038;-73
2022/05/06 06:41:03;;;;;;;13.30;11.98;;;;;;;10.99;72.95;101863.91;4953135;28;20029;-74
2022/05/06 06:43:28;;;;;;;23.67;12.80;;;;;;;11.12;72.12;101857.72;4930812;28;20029;-73
2022/05/06 06:45:54;;;;;;;14.48;13.07;;;;;;;11.19;72.42;101858.94;4960832;28;20024;-73
2022/05/06 06:48:19;;;;;;;15.30;13.45;;;;;;;11.27;71.32;101866.34;4976263;28;20894;-74
2022/05/06 06:50:45;;;;;;;16.90;12.70;;;;;;;11.32;71.63;101867.69;4951107;28;20928;-74
2022/05/06 06:53:11;;;;;;;16.63;12.73;;;;;;;11.36;71.16;101868.28;4938928;28;20018;-75
2022/05/06 06:55:36;;;;;;;16.45;13.07;;;;;;;11.46;71.27;101873.75;4958158;28;20014;-73
2022/05/06 06:58:01;;;;;;;19.30;14.52;;;;;;;11.61;71.15;101880.56;4972488;28;20010;-73
2022/05/06 07:00:27;;;;;;;17.00;14.75;;;;;;;11.76;70.48;101878.56;4976333;28;20021;-74
2022/05/06 07:02:55;;;;;;;16.90;14.95;;;;;;;11.82;69.25;101879.91;4976020;28;20044;-74
2022/05/06 07:05:21;;;;;;;16.00;14.40;;;;;;;11.86;69.09;101884.03;4980987;28;20006;-72
2022/05/06 07:13:17;;;;;;;19.10;14.45;;;;;;;12.07;69.36;101878.91;4967428;28;20032;-72
2022/05/06 07:15:42;;;;;;;19.20;14.57;;;;;;;12.11;69.63;101876.84;4982118;28;20009;-74
2022/05/06 07:18:08;;;;;;;16.30;14.63;;;;;;;12.24;69.57;101876.72;4979101;28;20072;-75
2022/05/06 07:20:33;;;;;;;16.80;14.15;;;;;;;12.32;68.62;101882.28;5013017;28;20016;-74
2022/05/06 07:22:59;;;;;;;14.95;13.45;;;;;;;12.41;67.75;101883.38;4992030;28;20006;-72
2022/05/06 07:25:24;;;;;;;15.45;13.80;;;;;;;12.49;67.25;101883.63;4996943;28;20009;-74
2022/05/06 07:27:53;;;;;;;19.73;13.27;;;;;;;12.63;67.94;101883.34;4996391;28;20009;-75
2022/05/06 07:30:18;;;;;;;15.73;12.95;;;;;;;12.83;65.88;101891.53;4979236;28;20018;-72
2022/05/06 07:32:43;;;;;;;14.98;13.30;;;;;;;12.86;65.32;101889.50;4990126;28;20570;-75
2022/05/06 07:35:09;;;;;;;17.10;14.10;;;;;;;12.90;64.31;101890.06;4974812;27;20526;-75
2022/05/06 07:37:35;;;;;;;18.50;13.90;;;;;;;12.99;64.87;101883.19;4983405;28;20799;-74
2022/05/06 07:40:01;;;;;;;15.15;13.73;;;;;;;13.04;66.06;101886.31;4995427;28;20320;-74
2022/05/06 07:42:28;;;;;;;15.80;14.15;;;;;;;13.20;67.75;101878.78;4978362;28;21006;-73
2022/05/06 07:44:55;;;;;;;16.75;15.02;;;;;;;13.33;67.37;101875.94;4974004;28;20021;-76
2022/05/06 07:47:20;;;;;;;16.70;15.02;;;;;;;13.44;67.03;101872.44;4961430;28;20328;-73
2022/05/06 07:49:46;;;;;;;20.23;15.30;;;;;;;13.54;66.69;101869.84;4992272;28;20020;-73
2022/05/06 07:52:11;;;;;;;17.88;14.45;;;;;;;13.69;66.22;101868.56;4976115;28;20902;-73
2022/05/06 07:54:36;;;;;;;17.90;16.00;;;;;;;13.82;63.88;101879.00;4993533;28;20538;-74
2022/05/06 07:57:02;;;;;;;15.98;14.38;;;;;;;13.93;62.49;101877.25;4984807;28;20021;-74
2022/05/06 07:59:28;;;;;;;16.85;14.90;;;;;;;14.07;61.91;101875.09;4978595;28;20030;-74
2022/05/06 08:04:37;;;;;;;19.35;14.45;;;;;;;14.28;60.56;101871.53;4974751;28;20529;-74
2022/05/06 08:07:06;;;;;;;16.65;14.45;;;;;;;14.31;59.73;101868.59;4993587;28;20021;-74
2022/05/06 08:09:35;;;;;;;16.05;13.25;;;;;;;14.28;59.94;101876.03;4984211;28;20019;-75
2022/05/06 08:12:01;;;;;;;18.13;15.23;;;;;;;14.43;60.29;101869.38;4967241;28;20424;-74
2022/05/06 08:14:26;;;;;;;16.20;13.93;;;;;;;14.58;59.42;101872.50;5007350;28;20778;-74
2022/05/06 08:16:52;;;;;;;21.17;14.13;;;;;;;14.81;59.92;101877.66;4970725;28;20014;-74
2022/05/06 08:19:18;;;;;;;21.02;13.95;;;;;;;14.91;58.57;101875.84;5017402;28;20401;-73
2022/05/06 08:21:43;;;;;;;15.65;14.00;;;;;;;15.10;57.76;101875.03;4985001;28;20383;-75
2022/05/06 08:24:09;;;;;;;18.60;14.63;;;;;;;15.26;58.21;101874.50;4987059;28;20931;-75
2022/05/06 08:26:37;;;;;;;18.23;14.65;;;;;;;15.24;57.21;101869.31;4958590;28;20965;-74
2022/05/06 08:29:03;;;;;;;15.73;14.10;;;;;;;15.28;56.69;101872.50;4982220;28;19998;-74
2022/05/06 08:31:31;;;;;;;15.65;13.93;;;;;;;15.37;56.25;101869.03;4963578;28;20137;-75
2022/05/06 08:33:57;;;;;;;15.30;13.60;;;;;;;15.60;56.11;101874.88;4966777;28;20014;-73
2022/05/06 08:36:23;;;;;;;16.15;12.88;;;;;;;15.73;54.70;101871.09;5004737;28;20247;-74
2022/05/06 08:38:49;;;;;;;15.38;13.88;;;;;;;15.91;54.47;101868.56;4996793;28;20095;-74
2022/05/06 08:41:14;;;;;;;19.95;15.00;;;;;;;16.07;54.02;101870.63;4947866;28;20005;-75
2022/05/06 08:43:40;;;;;;;18.75;15.05;;;;;;;16.21;54.77;101871.97;4964603;28;20041;-73
2022/05/06 08:51:38;;;;;;;22.55;15.52;;;;;;;16.70;52.55;101863.75;4974772;28;20025;-75
2022/05/06 08:54:04;;;;;;;17.85;14.93;;;;;;;16.75;53.76;101864.97;4927744;28;20007;-75
2022/05/06 08:56:30;;;;;;;18.85;14.95;;;;;;;17.08;52.42;101860.00;4988188;28;20025;-75
2022/05/06 08:58:56;;;;;;;22.40;16.33;;;;;;;17.09;52.69;101866.16;4984162;28;20411;-74
2022/05/06 09:01:22;;;;;;;19.60;14.45;;;;;;;17.29;51.11;101867.72;4957423;28;20136;-74
2022/05/06 09:03:48;;;;;;;21.02;13.60;;;;;;;17.51;49.20;101865.53;4956060;28;20152;-74
2022/05/06 09:06:27;;;;;;;17.73;14.02;;;;;;;17.73;49.40;101858.84;4957404;28;20013;-72
2022/05/06 09:08:54;;;;;;;20.35;15.75;;;;;;;17.71;49.27;101847.47;4954666;28;20054;-73
2022/05/06 09:14:05;;;;;;;18.27;12.93;;;;;;;18.54;48.27;101846.94;4965966;28;20024;-75
2022/05/06 09:16:39;;;;;;;19.65;12.63;;;;;;;18.88;47.08;101842.50;4957477;28;20022;-75
2022/05/06 09:19:24;;;;;;;22.92;13.57;;;;;;;18.83;43.59;101845.66;4961999;28;20651;-75
2022/05/06 09:22:06;;;;;;;13.95;11.63;;;;;;;19.26;42.25;101839.38;4970636;28;20365;-75
2022/05/06 09:24:37;;;;;;;15.40;11.70;;;;;;;19.38;42.33;101844.22;4942864;28;20041;-74
2022/05/06 09:27:13;;;;;;;12.95;11.38;;;;;;;19.62;42.47;101844.38;4953600;28;20010;-74
2022/05/06 09:29:42;;;;;;;18.45;12.25;;;;;;;19.48;42.39;101844.06;4956163;28;20010;-76
2022/05/06 09:32:14;;;;;;;12.80;11.07;;;;;;;19.96;41.87;101846.03;4937638;28;20129;-75
2022/05/06 09:34:40;;;;;;;18.65;11.10;;;;;;;20.16;39.39;101851.84;4951087;28;20539;-74
2022/05/06 09:37:06;;;;;;;13.40;10.90;;;;;;;20.62;40.26;101851.16;4960141;28;20132;-75
2022/05/06 09:39:32;;;;;;;12.00;10.73;;;;;;;20.52;39.82;101848.69;4977259;28;20021;-73
2022/05/06 09:42:02;;;;;;;17.85;11.70;;;;;;;20.84;39.23;101846.84;4983127;28;20976;-75
2022/05/06 09:44:27;;;;;;;15.10;12.38;;;;;;;21.29;38.58;101845.16;4961003;28;20131;-75
2022/05/06 09:47:11;;;;;;;17.42;12.13;;;;;;;21.07;38.21;101846.88;4955447;28;20990;-73
2022/05/06 09:49:42;;;;;;;12.95;10.35;;;;;;;21.38;39.93;101841.41;4941381;28;20141;-75
2022/05/06 09:52:12;;;;;;;12.32;10.13;;;;;;;22.04;37.88;101838.06;4940554;28;20103;-74
2022/05/06 09:54:39;;;;;;;15.63;11.23;;;;;;;21.99;38.58;101831.56;4954139;28;19999;-75
2022/05/06 09:57:04;;;;;;;12.93;11.07;;;;;;;21.99;38.79;101831.56;4971272;28;20033;-75
2022/05/06 09:59:30;;;;;;;15.40;11.50;;;;;;;21.98;36.41;101830.72;4936807;28;21033;-74
2022/05/06 10:01:55;;;;;;;13.38;10.57;;;;;;;22.39;37.53;101838.38;4935929;28;20030;-75
2022/05/06 10:04:21;;;;;;;14.63;11.40;;;;;;;22.93;35.64;101831.69;4972790;28;20006;-75
2022/05/06 10:06:46;;;;;;;12.00;10.60;;;;;;;23.22;33.82;101827.19;4980383;28;20018;-75
2022/05/06 10:09:11;;;;;;;13.88;11.05;;;;;;;22.79;34.04;101817.22;4955798;28;20026;-73
2022/05/06 10:11:38;;;;;;;10.93;9.40;;;;;;;23.70;37.17;101829.22;4977964;28;20017;-73
2022/05/06 10:14:05;;;;;;;10.88;9.07;;;;;;;24.05;34.18;101825.72;4954539;28;20131;-76
2022/05/06 10:16:34;;;;;;;12.45;9.15;;;;;;;24.34;33.38;101824.63;4987931;28;20026;-76
2022/05/06 10:19:00;;;;;;;17.88;9.68;;;;;;;24.23;31.68;101822.50;4975275;28;20009;-75
2022/05/06 10:21:46;;;;;;;10.18;8.27;;;;;;;24.81;33.53;101824.78;4977490;28;20755;-74
2022/05/06 10:24:15;;;;;;;10.15;9.15;;;;;;;25.16;32.39;101819.19;4993657;28;20029;-73
2022/05/06 10:26:41;;;;;;;9.45;8.02;;;;;;;25.53;32.03;101816.91;4977578;28;20895;-76
2022/05/06 10:34:54;;;;;;;11.52;7.43;;;;;;;25.36;31.77;101809.19;4990042;28;20132;-74
2022/05/06 10:37:20;;;;;;;9.07;7.70;;;;;;;25.40;32.40;101800.63;4978080;28;20118;-75
2022/05/06 10:39:45;;;;;;;10.50;8.27;;;;;;;26.04;30.20;101796.34;4960828;28;20040;-73
2022/05/06 10:42:11;;;;;;;7.80;7.10;;;;;;;26.55;29.29;101809.06;4943519;28;20013;-75
2022/05/06 10:44:48;;;;;;;9.80;8.48;;;;;;;26.48;29.26;101813.72;4958556;28;20429;-76
2022/05/06 10:47:13;;;;;;;8.77;7.88;;;;;;;26.50;28.29;101808.06;4992927;28;20028;-73
2022/05/06 10:49:38;;;;;;;9.00;8.07;;;;;;;26.45;27.96;101807.88;4995384;28;20563;-75
2022/05/06 10:52:16;;;;;;;7.90;7.10;;;;;;;25.93;28.09;101794.28;4977503;28;21263;-75
2022/05/06 10:54:52;;;;;;;7.10;6.43;;;;;;;25.03;30.94;101801.88;4964911;28;20496;-75
2022/05/06 10:57:19;;;;;;;9.18;7.75;;;;;;;24.20;32.05;101806.63;4999094;28;20021;-75
2022/05/06 11:00:03;;;;;;;11.40;8.60;;;;;;;24.42;30.88;101794.66;4993188;28;20021;-75
2022/05/06 11:02:29;;;;;;;10.63;9.63;;;;;;;25.27;31.39;101790.63;4985420;28;20325;-76
2022/05/06 11:04:56;;;;;;;10.60;9.23;;;;;;;26.01;30.71;101794.91;4997363;28;20806;-75
2022/05/06 11:07:21;;;;;;;10.00;8.38;;;;;;;26.28;28.72;101793.97;4974120;28;20026;-73
2022/05/06 11:09:47;;;;;;;11.15;10.05;;;;;;;26.23;28.19;101792.72;4977454;28;20485;-75
2022/05/06 11:12:31;;;;;;;7.32;6.55;;;;;;;26.67;24.93;101783.94;4979366;28;20033;-76
2022/05/06 11:15:03;;;;;;;5.03;4.38;;;;;;;26.77;25.09;101787.03;4963754;28;20522;-76
2022/05/06 11:17:29;;;;;;;8.18;7.47;;;;;;;27.35;28.19;101780.50;4989602;28;20132;-75
2022/05/06 11:19:54;;;;;;;9.27;8.30;;;;;;;27.50;28.38;101782.03;4993367;28;20014;-75
2022/05/06 11:22:23;;;;;;;9.10;8.23;;;;;;;28.08;28.94;101773.44;4972096;28;20021;-76
2022/05/06 11:24:49;;;;;;;9.77;8.77;;;;;;;28.40;28.62;101775.94;4969728;28;20018;-76
2022/05/06 11:27:16;;;;;;;11.15;8.52;;;;;;;28.47;26.05;101769.56;4977267;28;20013;-75
2022/05/06 11:29:55;;;;;;;9.00;8.20;;;;;;;28.72;27.09;101772.97;5000866;28;20010;-74
2022/05/06 11:32:20;;;;;;;11.63;7.30;;;;;;;28.19;26.57;101768.28;4986345;28;20215;-77
2022/05/06 11:34:58;;;;;;;8.65;6.15;;;;;;;27.58;25.97;101776.28;4992321;28;20904;-76
2022/05/06 11:37:25;;;;;;;7.93;6.88;;;;;;;26.30;26.42;101771.00;5001914;28;20220;-76
2022/05/06 11:39:51;;;;;;;8.57;6.95;;;;;;;26.83;25.95;101771.72;4961581;28;20516;-76
2022/05/06 11:42:23;;;;;;;6.57;6.07;;;;;;;28.12;27.55;101770.25;5000619;28;20009;-74
2022/05/06 11:47:43;;;;;;;9.13;8.20;;;;;;;27.53;26.48;101759.84;5015289;28;20549;-77
2022/05/06 11:50:08;;;;;;;9.82;7.88;;;;;;;27.88;26.64;101751.91;5003278;28;20006;-76
2022/05/06 11:52:33;;;;;;;9.10;7.85;;;;;;;28.41;27.10;101755.81;4973940;28;20130;-76
2022/05/06 11:54:59;;;;;;;9.13;8.20;;;;;;;29.02;26.56;101761.19;4997141;28;20014;-74
2022/05/06 11:57:24;;;;;;;9.32;8.30;;;;;;;29.29;26.38;101758.03;5002813;28;20395;-76
2022/05/06 11:59:50;;;;;;;8.77;7.97;;;;;;;28.65;26.24;101755.09;5012509;28;20017;-76
2022/05/06 12:02:15;;;;;;;9.10;8.20;;;;;;;28.45;25.13;101748.84;4975138;28;20086;-76